createdAt,value
2018-06-03T00:00:06.151Z,24.03
2018-06-03T00:02:34.916Z,25.20
2018-06-03T00:05:03.766Z,24.20
2018-06-03T00:07:32.679Z,24.97
2018-06-03T00:10:01.391Z,23.20
2018-06-03T00:12:30.205Z,23.93
2018-06-03T00:14:59.140Z,23.30
2018-06-03T00:17:27.951Z,22.80
2018-06-03T00:19:56.924Z,22.53
2018-06-03T00:22:31.685Z,23.13
2018-06-03T00:25:01.485Z,22.87
2018-06-03T00:27:30.248Z,24.20
2018-06-03T00:29:58.802Z,25.03
2018-06-03T00:32:27.631Z,23.50
2018-06-03T00:34:57.456Z,23.50
2018-06-03T00:37:26.219Z,23.53
2018-06-03T00:39:54.838Z,21.73
2018-06-03T00:42:23.551Z,23.67
2018-06-03T00:44:52.382Z,22.37
2018-06-03T00:47:21.135Z,21.43
2018-06-03T00:49:51.561Z,23.83
2018-06-03T00:52:20.398Z,24.17
2018-06-03T00:54:49.182Z,24.37
2018-06-03T00:57:18.089Z,25.83
2018-06-03T00:59:47.999Z,25.67
2018-06-03T01:02:16.807Z,26.47
2018-06-03T01:04:45.522Z,24.67
2018-06-03T01:07:14.660Z,25.80
2018-06-03T01:09:43.431Z,24.73
2018-06-03T01:12:12.162Z,25.37
2018-06-03T01:14:40.983Z,23.67
2018-06-03T01:17:09.794Z,23.33
2018-06-03T01:19:38.595Z,23.43
2018-06-03T01:22:07.328Z,22.83
2018-06-03T01:24:36.293Z,22.00
2018-06-03T01:27:05.033Z,22.73
2018-06-03T01:29:33.632Z,21.53
2018-06-03T01:32:02.624Z,21.53
2018-06-03T01:34:31.515Z,21.13
2018-06-03T01:37:00.097Z,21.73
2018-06-03T01:39:28.753Z,20.73
2018-06-03T01:41:57.542Z,20.47
2018-06-03T01:44:26.033Z,19.60
2018-06-03T01:46:54.711Z,20.97
2018-06-03T01:49:23.069Z,19.67
2018-06-03T01:51:51.685Z,19.70
2018-06-03T01:54:20.567Z,19.60
2018-06-03T01:56:49.478Z,19.07
2018-06-03T01:59:18.476Z,19.07
2018-06-03T02:01:47.441Z,18.50
2018-06-03T02:04:16.530Z,19.17
2018-06-03T02:06:45.475Z,17.50
2018-06-03T02:09:14.117Z,18.17
2018-06-03T02:11:43.015Z,19.60
2018-06-03T02:14:12.117Z,18.23
2018-06-03T02:16:40.983Z,19.80
2018-06-03T02:19:09.894Z,18.47
2018-06-03T02:21:38.611Z,18.27
2018-06-03T02:24:07.441Z,18.63
2018-06-03T02:26:36.220Z,18.47
2018-06-03T02:29:04.969Z,18.10
2018-06-03T02:31:33.984Z,18.97
2018-06-03T02:34:02.599Z,18.77
2018-06-03T02:36:31.586Z,18.10
2018-06-03T02:39:00.173Z,19.57
2018-06-03T02:41:29.103Z,19.00
2018-06-03T02:43:57.788Z,20.37
2018-06-03T02:46:26.921Z,17.87
2018-06-03T02:48:56.690Z,18.47
2018-06-03T02:51:25.705Z,17.70
2018-06-03T02:53:54.499Z,18.80
2018-06-03T02:56:23.363Z,18.57
2018-06-03T02:58:52.151Z,18.90
2018-06-03T03:01:21.393Z,18.60
2018-06-03T03:03:50.234Z,19.10
2018-06-03T03:06:19.247Z,18.90
2018-06-03T03:08:48.111Z,21.30
2018-06-03T03:11:16.967Z,22.27
2018-06-03T03:13:45.482Z,22.53
2018-06-03T03:16:14.397Z,24.27
2018-06-03T03:18:43.234Z,24.17
2018-06-03T03:21:11.874Z,24.23
2018-06-03T03:23:40.839Z,24.50
2018-06-03T03:26:09.553Z,24.67
2018-06-03T03:28:38.318Z,25.97
2018-06-03T03:31:07.724Z,24.73
2018-06-03T03:33:36.946Z,23.60
2018-06-03T03:36:05.841Z,23.57
2018-06-03T03:38:34.870Z,23.20
2018-06-03T03:41:03.554Z,23.23
2018-06-03T03:43:32.217Z,24.50
2018-06-03T03:46:00.892Z,24.13
2018-06-03T03:48:29.814Z,24.87
2018-06-03T03:50:58.787Z,25.10
2018-06-03T03:53:27.423Z,24.90
2018-06-03T03:55:56.176Z,24.03
2018-06-03T03:58:25.079Z,25.03
2018-06-03T04:00:53.815Z,24.63
2018-06-03T04:03:22.587Z,25.13
2018-06-03T04:05:51.203Z,26.83
2018-06-03T04:08:20.068Z,27.00
2018-06-03T04:10:48.884Z,26.40
2018-06-03T04:13:17.774Z,27.43
2018-06-03T04:15:46.430Z,29.63
2018-06-03T04:18:15.519Z,29.60
2018-06-03T04:20:44.560Z,30.20
2018-06-03T04:23:13.140Z,31.47
2018-06-03T04:25:42.048Z,32.53
2018-06-03T04:28:10.947Z,32.07
2018-06-03T04:30:40.043Z,32.50
2018-06-03T04:33:09.060Z,32.27
2018-06-03T04:35:37.949Z,32.00
2018-06-03T04:38:06.695Z,30.90
2018-06-03T04:40:35.689Z,31.37
2018-06-03T04:43:04.729Z,31.30
2018-06-03T04:45:33.349Z,32.53
2018-06-03T04:48:02.262Z,30.00
2018-06-03T04:50:31.001Z,29.90
2018-06-03T04:52:59.698Z,31.07
2018-06-03T04:55:28.592Z,29.27
2018-06-03T04:57:57.352Z,28.70
2018-06-03T05:00:26.627Z,29.63
2018-06-03T05:02:55.301Z,29.37
2018-06-03T05:05:24.121Z,28.90
2018-06-03T05:07:52.809Z,27.50
2018-06-03T05:10:21.524Z,28.27
2018-06-03T05:12:50.283Z,28.90
2018-06-03T05:15:19.274Z,27.87
2018-06-03T05:17:47.816Z,28.93
2018-06-03T05:20:16.394Z,28.13
2018-06-03T05:22:45.121Z,27.60
2018-06-03T05:25:13.909Z,27.37
2018-06-03T05:27:42.623Z,27.43
2018-06-03T05:30:11.484Z,27.17
2018-06-03T05:32:40.312Z,27.53
2018-06-03T05:35:08.963Z,25.80
2018-06-03T05:37:37.730Z,25.67
2018-06-03T05:40:06.674Z,25.47
2018-06-03T05:42:35.605Z,23.87
2018-06-03T05:45:04.498Z,24.40
2018-06-03T05:47:33.123Z,24.43
2018-06-03T05:50:01.868Z,24.47
2018-06-03T05:52:30.761Z,22.87
2018-06-03T05:54:59.667Z,22.57
2018-06-03T05:57:28.424Z,22.27
2018-06-03T05:59:57.098Z,19.43
2018-06-03T06:02:25.748Z,19.30
2018-06-03T06:04:54.295Z,19.07
2018-06-03T06:07:23.683Z,17.20
2018-06-03T06:09:52.418Z,17.87
2018-06-03T06:12:21.220Z,15.57
2018-06-03T06:14:50.560Z,15.07
2018-06-03T06:17:19.716Z,16.03
2018-06-03T06:19:48.540Z,14.80
2018-06-03T06:22:18.185Z,15.17
2018-06-03T06:24:46.900Z,16.33
2018-06-03T06:27:15.712Z,17.47
2018-06-03T06:29:44.494Z,16.30
2018-06-03T06:32:13.699Z,15.80
2018-06-03T06:34:42.368Z,15.03
2018-06-03T06:37:11.131Z,16.70
2018-06-03T06:39:40.416Z,17.83
2018-06-03T06:42:09.000Z,18.57
2018-06-03T06:44:37.895Z,18.30
2018-06-03T06:47:06.574Z,18.67
2018-06-03T06:49:35.461Z,17.77
2018-06-03T06:52:04.191Z,16.00
2018-06-03T06:54:32.752Z,14.60
2018-06-03T06:57:01.520Z,16.70
2018-06-03T06:59:30.389Z,16.17
2018-06-03T07:01:58.944Z,15.27
2018-06-03T07:04:27.561Z,14.17
2018-06-03T07:06:56.113Z,14.57
2018-06-03T07:09:25.697Z,15.10
2018-06-03T07:11:54.918Z,15.30
2018-06-03T07:14:23.489Z,15.80
2018-06-03T07:16:52.356Z,13.60
2018-06-03T07:19:20.992Z,12.77
2018-06-03T07:21:50.003Z,12.37
2018-06-03T07:24:18.911Z,12.57
2018-06-03T07:26:47.601Z,11.77
2018-06-03T07:29:16.337Z,11.73
2018-06-03T07:31:45.023Z,10.27
2018-06-03T07:34:13.798Z,10.30
2018-06-03T07:36:42.547Z,10.13
2018-06-03T07:39:11.772Z,9.20
2018-06-03T07:41:40.400Z,7.60
2018-06-03T07:44:09.059Z,7.40
2018-06-03T07:46:37.901Z,7.13
2018-06-03T07:49:06.758Z,6.90
2018-06-03T07:51:35.981Z,6.93
2018-06-03T07:54:04.519Z,6.97
2018-06-03T07:56:33.128Z,5.87
2018-06-03T07:59:02.112Z,6.07
2018-06-03T08:01:30.784Z,6.27
2018-06-03T08:04:00.255Z,6.17
2018-06-03T08:06:28.963Z,6.07
2018-06-03T08:08:57.475Z,5.90
2018-06-03T08:11:26.391Z,5.73
2018-06-03T08:13:55.012Z,6.03
2018-06-03T08:16:23.561Z,6.33
2018-06-03T08:18:52.470Z,6.73
2018-06-03T08:21:21.200Z,8.07
2018-06-03T08:23:50.110Z,7.00
2018-06-03T08:26:18.652Z,7.20
2018-06-03T08:28:47.404Z,6.87
2018-06-03T08:31:16.017Z,7.27
2018-06-03T08:33:45.607Z,7.10
2018-06-03T08:36:14.176Z,6.53
2018-06-03T08:38:43.048Z,6.30
2018-06-03T08:41:12.207Z,6.43
2018-06-03T08:43:40.810Z,6.50
2018-06-03T08:46:09.422Z,6.87
2018-06-03T08:48:38.004Z,7.03
2018-06-03T08:51:06.891Z,6.40
2018-06-03T08:53:35.539Z,6.43
2018-06-03T08:56:04.159Z,6.67
2018-06-03T08:58:33.043Z,6.73
2018-06-03T09:01:01.899Z,6.87
2018-06-03T09:03:30.454Z,6.87
2018-06-03T09:05:59.206Z,6.80
2018-06-03T09:08:28.065Z,6.63
2018-06-03T09:10:56.910Z,6.47
2018-06-03T09:13:25.786Z,6.07
2018-06-03T09:15:54.394Z,6.40
2018-06-03T09:18:23.114Z,6.40
2018-06-03T09:20:51.744Z,6.30
2018-06-03T09:23:20.719Z,6.93
2018-06-03T09:25:49.513Z,6.47
2018-06-03T09:28:18.267Z,8.37
2018-06-03T09:30:46.650Z,6.90
2018-06-03T09:33:15.585Z,8.30
2018-06-03T09:35:44.263Z,7.77
2018-06-03T09:38:12.898Z,7.73
2018-06-03T09:40:41.468Z,7.43
2018-06-03T09:43:10.149Z,7.27
2018-06-03T09:45:39.851Z,7.20
2018-06-03T09:48:08.801Z,7.33
2018-06-03T09:50:37.341Z,7.20
2018-06-03T09:53:06.215Z,7.63
2018-06-03T09:55:35.066Z,7.87
2018-06-03T09:58:03.940Z,7.77
2018-06-03T10:00:33.755Z,8.10
2018-06-03T10:03:02.823Z,8.20
2018-06-03T10:05:31.868Z,9.20
2018-06-03T10:08:00.648Z,9.10
2018-06-03T10:10:29.252Z,9.23
2018-06-03T10:12:57.851Z,8.33
2018-06-03T10:15:26.677Z,8.33
2018-06-03T10:17:55.691Z,8.87
2018-06-03T10:20:24.450Z,7.60
2018-06-03T10:22:53.188Z,9.37
2018-06-03T10:25:21.822Z,9.17
2018-06-03T10:27:50.640Z,9.63
2018-06-03T10:30:19.204Z,9.57
2018-06-03T10:32:47.860Z,9.47
2018-06-03T10:35:16.804Z,9.90
2018-06-03T10:37:45.748Z,9.50
2018-06-03T10:40:14.435Z,8.60
2018-06-03T10:42:42.753Z,9.23
2018-06-03T10:45:11.486Z,8.47
2018-06-03T10:47:40.037Z,7.40
2018-06-03T10:50:08.827Z,7.87
2018-06-03T10:52:37.907Z,7.40
2018-06-03T10:55:06.571Z,8.17
2018-06-03T10:57:35.314Z,8.20
2018-06-03T11:00:04.701Z,8.40
2018-06-03T11:02:33.396Z,8.33
2018-06-03T11:05:02.019Z,9.07
2018-06-03T11:07:30.737Z,8.83
2018-06-03T11:10:00.489Z,8.33
2018-06-03T11:12:29.109Z,8.70
2018-06-03T11:14:58.187Z,9.77
2018-06-03T11:17:26.974Z,9.00
2018-06-03T11:19:56.368Z,9.27
2018-06-03T11:22:25.240Z,9.73
2018-06-03T11:24:53.924Z,10.63
2018-06-03T11:27:22.501Z,9.73
2018-06-03T11:29:51.079Z,11.60
2018-06-03T11:32:19.717Z,12.77
2018-06-03T11:34:49.145Z,15.90
2018-06-03T11:37:17.753Z,17.90
2018-06-03T11:39:46.429Z,20.23
2018-06-03T11:42:15.016Z,19.43
2018-06-03T11:44:43.871Z,19.87
2018-06-03T11:47:13.196Z,17.53
2018-06-03T11:49:42.216Z,17.40
2018-06-03T11:52:11.945Z,16.67
2018-06-03T11:54:40.742Z,17.70
2018-06-03T11:57:09.461Z,19.30
2018-06-03T11:59:43.107Z,20.70
2018-06-03T12:02:13.174Z,19.77
2018-06-03T12:04:42.285Z,20.93
2018-06-03T12:07:12.179Z,21.20
2018-06-03T12:09:42.919Z,20.50
2018-06-03T12:12:12.552Z,20.73
2018-06-03T12:14:41.318Z,19.63
2018-06-03T12:17:09.942Z,19.93
2018-06-03T12:19:39.855Z,19.90
2018-06-03T12:22:08.438Z,19.23
2018-06-03T12:24:37.554Z,18.33
2018-06-03T12:27:06.171Z,19.67
2018-06-03T12:29:34.966Z,18.73
2018-06-03T12:32:03.722Z,18.00
2018-06-03T12:34:32.624Z,18.43
2018-06-03T12:37:01.242Z,17.50
2018-06-03T12:39:29.847Z,17.07
2018-06-03T12:41:58.980Z,16.47
2018-06-03T12:44:27.638Z,15.93
2018-06-03T12:46:56.483Z,16.40
2018-06-03T12:49:25.272Z,16.33
2018-06-03T12:51:54.472Z,16.63
2018-06-03T12:54:23.362Z,16.43
2018-06-03T12:56:51.863Z,17.57
2018-06-03T12:59:20.595Z,17.03
2018-06-03T13:01:49.391Z,16.40
2018-06-03T13:04:18.000Z,16.70
2018-06-03T13:06:46.792Z,17.47
2018-06-03T13:09:15.479Z,17.70
2018-06-03T13:11:43.990Z,18.17
2018-06-03T13:14:12.595Z,17.30
2018-06-03T13:16:41.695Z,18.20
2018-06-03T13:19:10.285Z,18.07
2018-06-03T13:21:38.862Z,17.10
2018-06-03T13:24:07.649Z,16.03
2018-06-03T13:26:36.186Z,17.50
2018-06-03T13:29:05.076Z,17.30
2018-06-03T13:31:33.598Z,17.47
2018-06-03T13:34:02.282Z,18.00
2018-06-03T13:36:30.858Z,18.83
2018-06-03T13:38:59.083Z,19.37
2018-06-03T13:41:27.638Z,18.83
2018-06-03T13:43:55.828Z,19.13
2018-06-03T13:46:24.432Z,20.93
2018-06-03T13:48:53.064Z,19.90
2018-06-03T13:51:21.776Z,20.93
2018-06-03T13:53:50.242Z,20.03
2018-06-03T13:56:18.734Z,19.70
2018-06-03T13:58:47.219Z,18.20
2018-06-03T14:01:15.653Z,17.23
2018-06-03T14:03:44.114Z,17.30
2018-06-03T14:06:12.579Z,18.60
2018-06-03T14:08:40.711Z,18.70
2018-06-03T14:11:09.725Z,17.43
2018-06-03T14:13:38.247Z,17.07
2018-06-03T14:16:06.702Z,17.67
2018-06-03T14:18:35.196Z,16.83
2018-06-03T14:21:03.685Z,16.77
2018-06-03T14:23:32.158Z,17.97
2018-06-03T14:26:00.367Z,16.57
2018-06-03T14:28:28.917Z,16.63
2018-06-03T14:30:57.434Z,16.57
2018-06-03T14:33:25.912Z,17.30
2018-06-03T14:35:54.373Z,18.47
2018-06-03T14:38:22.861Z,17.80
2018-06-03T14:40:51.386Z,18.97
2018-06-03T14:43:19.986Z,17.83
2018-06-03T14:45:48.464Z,18.23
2018-06-03T14:48:17.014Z,17.53
2018-06-03T14:50:45.561Z,17.43
2018-06-03T14:53:14.033Z,16.90
2018-06-03T14:55:42.620Z,17.23
2018-06-03T14:58:11.101Z,16.60
2018-06-03T15:00:39.564Z,16.60
2018-06-03T15:03:08.069Z,16.17
2018-06-03T15:05:36.565Z,14.93
2018-06-03T15:08:05.289Z,15.90
2018-06-03T15:10:33.721Z,15.93
2018-06-03T15:13:02.201Z,16.00
2018-06-03T15:15:30.719Z,17.00
2018-06-03T15:17:59.259Z,16.10
2018-06-03T15:20:27.800Z,15.73
2018-06-03T15:22:56.468Z,16.90
2018-06-03T15:25:25.090Z,17.53
2018-06-03T15:27:53.754Z,16.47
2018-06-03T15:30:22.395Z,18.27
2018-06-03T15:32:51.041Z,17.17
2018-06-03T15:35:19.638Z,17.03
2018-06-03T15:37:48.316Z,17.03
2018-06-03T15:40:16.823Z,17.03
2018-06-03T15:42:45.475Z,16.90
2018-06-03T15:45:14.097Z,17.47
2018-06-03T15:47:42.695Z,15.67
2018-06-03T15:50:11.292Z,16.27
2018-06-03T15:52:39.877Z,16.07
2018-06-03T15:55:08.612Z,16.43
2018-06-03T15:57:37.189Z,17.70
2018-06-03T16:00:06.218Z,18.47
2018-06-03T16:02:34.859Z,19.33
2018-06-03T16:05:03.549Z,18.83
2018-06-03T16:07:32.632Z,20.23
2018-06-03T16:10:01.366Z,20.07
2018-06-03T16:12:30.027Z,19.93
2018-06-03T16:14:58.847Z,19.97
2018-06-03T16:17:27.446Z,19.40
2018-06-03T16:19:56.020Z,19.43
2018-06-03T16:22:24.643Z,19.57
2018-06-03T16:24:53.239Z,19.83
2018-06-03T16:27:21.861Z,18.43
2018-06-03T16:29:50.499Z,19.60
2018-06-03T16:32:19.138Z,19.20
2018-06-03T16:34:48.039Z,18.10
2018-06-03T16:37:16.639Z,18.00
2018-06-03T16:39:45.244Z,17.93
2018-06-03T16:42:13.959Z,17.43
2018-06-03T16:44:42.544Z,18.40
2018-06-03T16:47:11.114Z,19.30
2018-06-03T16:49:39.767Z,18.30
2018-06-03T16:52:08.591Z,19.33
2018-06-03T16:54:37.199Z,19.63
2018-06-03T16:57:05.700Z,19.47
2018-06-03T16:59:34.275Z,19.60
2018-06-03T17:02:02.896Z,19.13
2018-06-03T17:04:31.514Z,18.47
2018-06-03T17:07:00.079Z,18.30
2018-06-03T17:09:28.578Z,16.70
2018-06-03T17:11:57.077Z,16.77
2018-06-03T17:14:25.648Z,16.37
2018-06-03T17:16:54.144Z,14.53
2018-06-03T17:19:22.686Z,14.57
2018-06-03T17:21:51.245Z,14.20
2018-06-03T17:24:19.795Z,13.87
2018-06-03T17:26:48.275Z,15.07
2018-06-03T17:29:16.438Z,13.43
2018-06-03T17:31:45.085Z,14.03
2018-06-03T17:34:13.992Z,13.53
2018-06-03T17:36:42.488Z,13.77
2018-06-03T17:39:11.101Z,14.33
2018-06-03T17:41:39.625Z,14.57
2018-06-03T17:44:08.198Z,14.10
2018-06-03T17:46:36.787Z,14.83
2018-06-03T17:49:05.114Z,14.17
2018-06-03T17:51:33.674Z,14.80
2018-06-03T17:54:02.254Z,14.37
2018-06-03T17:56:30.822Z,14.70
2018-06-03T17:58:59.505Z,15.30
2018-06-03T18:01:28.088Z,15.63
2018-06-03T18:03:56.607Z,14.70
2018-06-03T18:06:25.145Z,15.83
2018-06-03T18:08:53.719Z,15.70
2018-06-03T18:11:22.409Z,14.60
2018-06-03T18:13:50.989Z,15.27
2018-06-03T18:16:19.544Z,15.83
2018-06-03T18:18:48.128Z,16.10
2018-06-03T18:21:16.634Z,15.90
2018-06-03T18:23:45.247Z,16.97
2018-06-03T18:26:13.787Z,16.80
2018-06-03T18:28:42.299Z,16.97
2018-06-03T18:31:10.818Z,17.37
2018-06-03T18:33:39.394Z,17.93
2018-06-03T18:36:08.101Z,17.63
2018-06-03T18:38:36.671Z,18.10
2018-06-03T18:41:05.251Z,19.23
2018-06-03T18:43:33.867Z,19.33
2018-06-03T18:46:02.417Z,21.10
2018-06-03T18:48:30.941Z,22.10
2018-06-03T18:50:59.533Z,19.67
2018-06-03T18:53:28.053Z,21.17
2018-06-03T18:55:56.648Z,19.70
2018-06-03T18:58:25.284Z,21.43
2018-06-03T19:00:53.921Z,20.33
2018-06-03T19:03:22.602Z,20.27
2018-06-03T19:05:51.225Z,21.33
2018-06-03T19:08:19.833Z,21.27
2018-06-03T19:10:48.484Z,20.67
2018-06-03T19:13:17.250Z,21.50
2018-06-03T19:15:45.843Z,22.70
2018-06-03T19:18:14.526Z,22.30
2018-06-03T19:20:43.242Z,21.57
2018-06-03T19:23:11.880Z,23.43
2018-06-03T19:25:40.410Z,22.23
2018-06-03T19:28:08.991Z,23.80
2018-06-03T19:30:37.515Z,22.07
2018-06-03T19:33:06.229Z,21.70
2018-06-03T19:35:34.731Z,20.80
2018-06-03T19:38:04.289Z,20.80
2018-06-03T19:40:32.717Z,24.50
2018-06-03T19:43:01.281Z,20.40
2018-06-03T19:45:36.341Z,21.83
2018-06-03T19:48:05.271Z,22.83
2018-06-03T19:50:33.941Z,23.60
2018-06-03T19:53:02.866Z,24.23
2018-06-03T19:55:31.440Z,26.00
2018-06-03T19:57:59.995Z,25.80
2018-06-03T20:00:28.595Z,24.90
2018-06-03T20:02:56.855Z,26.30
2018-06-03T20:05:25.390Z,25.07
2018-06-03T20:07:53.606Z,26.13
2018-06-03T20:10:22.175Z,25.70
2018-06-03T20:12:50.834Z,26.70
2018-06-03T20:15:20.194Z,26.60
2018-06-03T20:17:53.334Z,27.40
2018-06-03T20:20:22.155Z,26.57
2018-06-03T20:22:50.719Z,27.20
2018-06-03T20:25:19.947Z,26.07
2018-06-03T20:27:49.389Z,28.30
2018-06-03T20:30:17.985Z,27.50
2018-06-03T20:32:46.580Z,28.17
2018-06-03T20:35:15.174Z,29.43
2018-06-03T20:37:43.745Z,30.33
2018-06-03T20:40:12.385Z,30.97
2018-06-03T20:42:40.906Z,33.47
2018-06-03T20:45:09.477Z,31.57
2018-06-03T20:47:37.997Z,32.30
2018-06-03T20:50:06.554Z,32.90
2018-06-03T20:52:35.094Z,31.43
2018-06-03T20:55:03.790Z,32.53
2018-06-03T20:57:32.472Z,32.03
2018-06-03T21:00:01.031Z,33.87
2018-06-03T21:02:29.753Z,32.27
2018-06-03T21:04:58.297Z,31.97
2018-06-03T21:07:26.846Z,32.03
2018-06-03T21:09:55.057Z,31.90
2018-06-03T21:12:23.539Z,32.03
2018-06-03T21:14:52.033Z,33.03
2018-06-03T21:17:20.610Z,32.17
2018-06-03T21:19:49.117Z,31.83
2018-06-03T21:22:17.647Z,31.13
2018-06-03T21:24:46.131Z,32.80
2018-06-03T21:27:14.720Z,32.33
2018-06-03T21:29:43.221Z,33.17
2018-06-03T21:32:11.706Z,34.47
2018-06-03T21:34:40.266Z,35.67
2018-06-03T21:37:08.450Z,34.57
2018-06-03T21:39:37.175Z,35.33
2018-06-03T21:42:05.822Z,35.97
2018-06-03T21:44:34.306Z,34.30
2018-06-03T21:47:02.809Z,35.63
2018-06-03T21:49:31.544Z,35.43
2018-06-03T21:52:00.148Z,35.57
2018-06-03T21:54:28.745Z,36.27
2018-06-03T21:56:57.224Z,36.47
2018-06-03T21:59:25.836Z,36.57
2018-06-03T22:01:54.451Z,37.10
2018-06-03T22:04:23.079Z,38.30
2018-06-03T22:06:51.605Z,37.87
2018-06-03T22:09:20.139Z,38.17
2018-06-03T22:11:48.676Z,39.90
2018-06-03T22:14:17.227Z,38.93
2018-06-03T22:16:45.703Z,38.67
2018-06-03T22:19:14.313Z,39.43
2018-06-03T22:21:42.863Z,39.40
2018-06-03T22:24:11.478Z,40.37
2018-06-03T22:26:39.975Z,37.63
2018-06-03T22:29:08.571Z,37.77
2018-06-03T22:31:36.773Z,37.90
2018-06-03T22:34:05.462Z,39.33
2018-06-03T22:36:34.016Z,38.63
2018-06-03T22:39:02.631Z,39.33
2018-06-03T22:41:31.179Z,39.13
2018-06-03T22:43:59.778Z,39.03
2018-06-03T22:46:28.255Z,36.57
2018-06-03T22:48:56.971Z,38.27
2018-06-03T22:51:25.570Z,38.40
2018-06-03T22:53:54.147Z,39.00
2018-06-03T22:56:22.710Z,38.40
2018-06-03T22:58:51.475Z,37.60
2018-06-03T23:01:20.042Z,39.07
2018-06-03T23:03:48.539Z,41.77
2018-06-03T23:06:17.952Z,39.30
2018-06-03T23:08:46.481Z,39.10
2018-06-03T23:11:14.979Z,39.77
2018-06-03T23:13:43.641Z,39.40
2018-06-03T23:16:12.147Z,40.03
2018-06-03T23:18:40.687Z,41.30
2018-06-03T23:21:09.301Z,42.07
2018-06-03T23:23:37.815Z,39.80
2018-06-03T23:26:06.377Z,41.20
2018-06-03T23:28:34.878Z,42.97
2018-06-03T23:31:03.487Z,44.13
2018-06-03T23:33:31.994Z,43.13
2018-06-03T23:36:00.506Z,41.13
2018-06-03T23:38:29.141Z,44.93
2018-06-03T23:40:57.646Z,44.07
2018-06-03T23:43:26.186Z,44.80
2018-06-03T23:45:54.772Z,46.00
2018-06-03T23:48:23.374Z,44.97
2018-06-03T23:50:51.898Z,45.70
2018-06-03T23:53:20.500Z,44.93
2018-06-03T23:55:49.051Z,45.83
2018-06-03T23:58:17.564Z,45.53
